sensor_id;sensor_type;location;lat;lon;timestamp;P1;durP1;ratioP1;P2;durP2;ratioP2
56631;SDS011;42503;39.928;-75.152;2022-11-20T00:00:18;2.47;;;0.85;;
56631;SDS011;42503;39.928;-75.152;2022-11-20T00:02:19;1.10;;;0.88;;
56631;SDS011;42503;39.928;-75.152;2022-11-20T00:04:20;4.07;;;1.10;;
56631;SDS011;42503;39.928;-75.152;2022-11-20T00:06:22;4.97;;;1.10;;
56631;SDS011;42503;39.928;-75.152;2022-11-20T00:08:24;4.97;;;1.30;;
56631;SDS011;42503;39.928;-75.152;2022-11-20T00:10:25;2.00;;;0.80;;
56631;SDS011;42503;39.928;-75.152;2022-11-20T00:12:27;9.48;;;1.00;;
56631;SDS011;42503;39.928;-75.152;2022-11-20T00:14:28;10.45;;;1.05;;
56631;SDS011;42503;39.928;-75.152;2022-11-20T00:16:30;10.73;;;1.30;;
56631;SDS011;42503;39.928;-75.152;2022-11-20T00:18:33;3.20;;;0.95;;
56631;SDS011;42503;39.928;-75.152;2022-11-20T00:20:34;5.75;;;1.30;;
56631;SDS011;42503;39.928;-75.152;2022-11-20T00:22:36;6.90;;;1.35;;
56631;SDS011;42503;39.928;-75.152;2022-11-20T00:24:37;5.78;;;1.50;;
56631;SDS011;42503;39.928;-75.152;2022-11-20T00:26:38;9.05;;;1.20;;
56631;SDS011;42503;39.928;-75.152;2022-11-20T00:28:40;15.50;;;1.70;;
56631;SDS011;42503;39.928;-75.152;2022-11-20T00:30:42;10.82;;;1.67;;
56631;SDS011;42503;39.928;-75.152;2022-11-20T00:32:43;7.93;;;1.30;;
56631;SDS011;42503;39.928;-75.152;2022-11-20T00:34:47;7.53;;;1.73;;
56631;SDS011;42503;39.928;-75.152;2022-11-20T00:36:48;7.35;;;1.60;;
56631;SDS011;42503;39.928;-75.152;2022-11-20T00:38:56;12.68;;;1.70;;
56631;SDS011;42503;39.928;-75.152;2022-11-20T00:41:00;10.32;;;2.45;;
56631;SDS011;42503;39.928;-75.152;2022-11-20T00:43:02;8.20;;;1.80;;
56631;SDS011;42503;39.928;-75.152;2022-11-20T00:45:03;16.25;;;2.53;;
56631;SDS011;42503;39.928;-75.152;2022-11-20T00:47:05;9.93;;;2.53;;
56631;SDS011;42503;39.928;-75.152;2022-11-20T00:49:06;8.70;;;2.35;;
56631;SDS011;42503;39.928;-75.152;2022-11-20T00:51:08;8.40;;;2.63;;
56631;SDS011;42503;39.928;-75.152;2022-11-20T00:53:12;11.43;;;2.65;;
56631;SDS011;42503;39.928;-75.152;2022-11-20T00:55:16;11.13;;;2.92;;
56631;SDS011;42503;39.928;-75.152;2022-11-20T00:57:17;8.40;;;3.55;;
56631;SDS011;42503;39.928;-75.152;2022-11-20T00:59:18;6.25;;;2.80;;
56631;SDS011;42503;39.928;-75.152;2022-11-20T01:01:21;13.30;;;2.70;;
56631;SDS011;42503;39.928;-75.152;2022-11-20T01:03:26;7.72;;;2.60;;
56631;SDS011;42503;39.928;-75.152;2022-11-20T01:05:28;7.63;;;3.20;;
56631;SDS011;42503;39.928;-75.152;2022-11-20T01:07:29;6.00;;;2.60;;
56631;SDS011;42503;39.928;-75.152;2022-11-20T01:09:33;7.30;;;3.00;;
56631;SDS011;42503;39.928;-75.152;2022-11-20T01:11:37;8.98;;;2.95;;
56631;SDS011;42503;39.928;-75.152;2022-11-20T01:15:41;7.90;;;3.00;;
56631;SDS011;42503;39.928;-75.152;2022-11-20T01:17:43;9.40;;;3.20;;
56631;SDS011;42503;39.928;-75.152;2022-11-20T01:19:44;7.72;;;2.72;;
56631;SDS011;42503;39.928;-75.152;2022-11-20T01:21:46;10.02;;;2.90;;
56631;SDS011;42503;39.928;-75.152;2022-11-20T01:23:50;6.45;;;2.85;;
56631;SDS011;42503;39.928;-75.152;2022-11-20T01:25:52;8.85;;;2.50;;
56631;SDS011;42503;39.928;-75.152;2022-11-20T01:27:53;17.92;;;3.10;;
56631;SDS011;42503;39.928;-75.152;2022-11-20T01:29:57;5.75;;;2.72;;
56631;SDS011;42503;39.928;-75.152;2022-11-20T01:31:58;6.88;;;2.70;;
56631;SDS011;42503;39.928;-75.152;2022-11-20T01:34:01;4.68;;;2.15;;
56631;SDS011;42503;39.928;-75.152;2022-11-20T01:36:07;10.25;;;2.40;;
56631;SDS011;42503;39.928;-75.152;2022-11-20T01:38:14;5.95;;;2.63;;
56631;SDS011;42503;39.928;-75.152;2022-11-20T01:40:16;5.65;;;2.10;;
56631;SDS011;42503;39.928;-75.152;2022-11-20T01:42:17;4.32;;;2.28;;
56631;SDS011;42503;39.928;-75.152;2022-11-20T01:47:00;4.95;;;2.00;;
56631;SDS011;42503;39.928;-75.152;2022-11-20T01:51:28;4.10;;;1.98;;
56631;SDS011;42503;39.928;-75.152;2022-11-20T01:53:35;5.65;;;2.58;;
56631;SDS011;42503;39.928;-75.152;2022-11-20T01:55:48;6.43;;;2.58;;
56631;SDS011;42503;39.928;-75.152;2022-11-20T01:57:52;6.03;;;2.35;;
56631;SDS011;42503;39.928;-75.152;2022-11-20T02:00:00;3.22;;;1.90;;
56631;SDS011;42503;39.928;-75.152;2022-11-20T02:02:09;3.08;;;2.05;;
56631;SDS011;42503;39.928;-75.152;2022-11-20T02:04:10;4.65;;;2.33;;
56631;SDS011;42503;39.928;-75.152;2022-11-20T02:06:19;4.50;;;1.90;;
56631;SDS011;42503;39.928;-75.152;2022-11-20T02:08:26;4.13;;;2.00;;
56631;SDS011;42503;39.928;-75.152;2022-11-20T02:10:29;4.10;;;2.10;;
56631;SDS011;42503;39.928;-75.152;2022-11-20T02:12:31;6.43;;;2.20;;
56631;SDS011;42503;39.928;-75.152;2022-11-20T02:14:51;3.15;;;1.75;;
56631;SDS011;42503;39.928;-75.152;2022-11-20T02:16:53;4.38;;;1.88;;
56631;SDS011;42503;39.928;-75.152;2022-11-20T02:18:56;2.88;;;2.08;;
56631;SDS011;42503;39.928;-75.152;2022-11-20T02:21:05;4.65;;;3.10;;
56631;SDS011;42503;39.928;-75.152;2022-11-20T02:23:28;10.63;;;4.45;;
56631;SDS011;42503;39.928;-75.152;2022-11-20T02:25:40;22.65;;;8.95;;
56631;SDS011;42503;39.928;-75.152;2022-11-20T02:27:46;24.52;;;10.57;;
56631;SDS011;42503;39.928;-75.152;2022-11-20T02:29:51;27.45;;;11.90;;
56631;SDS011;42503;39.928;-75.152;2022-11-20T02:31:57;26.20;;;12.80;;
56631;SDS011;42503;39.928;-75.152;2022-11-20T02:34:01;34.42;;;14.80;;
56631;SDS011;42503;39.928;-75.152;2022-11-20T02:36:03;29.50;;;14.32;;
56631;SDS011;42503;39.928;-75.152;2022-11-20T02:38:12;37.50;;;17.73;;
56631;SDS011;42503;39.928;-75.152;2022-11-20T02:40:14;36.17;;;17.20;;
56631;SDS011;42503;39.928;-75.152;2022-11-20T02:42:18;46.20;;;20.27;;
56631;SDS011;42503;39.928;-75.152;2022-11-20T02:44:19;50.10;;;21.90;;
56631;SDS011;42503;39.928;-75.152;2022-11-20T02:46:21;52.47;;;24.40;;
56631;SDS011;42503;39.928;-75.152;2022-11-20T02:48:22;54.38;;;24.40;;
56631;SDS011;42503;39.928;-75.152;2022-11-20T02:50:23;54.85;;;25.52;;
56631;SDS011;42503;39.928;-75.152;2022-11-20T02:52:28;58.38;;;27.25;;
56631;SDS011;42503;39.928;-75.152;2022-11-20T02:54:29;60.67;;;28.35;;
56631;SDS011;42503;39.928;-75.152;2022-11-20T02:56:30;71.45;;;29.83;;
56631;SDS011;42503;39.928;-75.152;2022-11-20T02:58:32;70.43;;;32.08;;
56631;SDS011;42503;39.928;-75.152;2022-11-20T03:00:33;75.60;;;31.40;;
56631;SDS011;42503;39.928;-75.152;2022-11-20T03:02:36;72.30;;;31.92;;
56631;SDS011;42503;39.928;-75.152;2022-11-20T03:04:40;70.70;;;34.30;;
56631;SDS011;42503;39.928;-75.152;2022-11-20T03:06:44;77.13;;;33.78;;
56631;SDS011;42503;39.928;-75.152;2022-11-20T03:08:45;77.13;;;35.67;;
56631;SDS011;42503;39.928;-75.152;2022-11-20T03:11:07;81.53;;;36.72;;
56631;SDS011;42503;39.928;-75.152;2022-11-20T03:13:08;77.35;;;35.35;;
56631;SDS011;42503;39.928;-75.152;2022-11-20T03:15:10;78.35;;;35.63;;
56631;SDS011;42503;39.928;-75.152;2022-11-20T03:17:11;79.07;;;36.55;;
56631;SDS011;42503;39.928;-75.152;2022-11-20T03:19:12;83.85;;;36.00;;
56631;SDS011;42503;39.928;-75.152;2022-11-20T03:21:14;70.60;;;34.90;;
56631;SDS011;42503;39.928;-75.152;2022-11-20T03:23:17;69.18;;;32.88;;
56631;SDS011;42503;39.928;-75.152;2022-11-20T03:25:18;72.22;;;35.58;;
56631;SDS011;42503;39.928;-75.152;2022-11-20T03:27:22;74.78;;;35.85;;
56631;SDS011;42503;39.928;-75.152;2022-11-20T03:29:23;80.80;;;35.47;;
56631;SDS011;42503;39.928;-75.152;2022-11-20T03:31:30;76.40;;;35.45;;
56631;SDS011;42503;39.928;-75.152;2022-11-20T03:33:36;69.80;;;32.65;;
56631;SDS011;42503;39.928;-75.152;2022-11-20T03:35:38;70.15;;;34.88;;
56631;SDS011;42503;39.928;-75.152;2022-11-20T03:37:42;70.47;;;34.53;;
56631;SDS011;42503;39.928;-75.152;2022-11-20T03:39:43;71.15;;;34.08;;
56631;SDS011;42503;39.928;-75.152;2022-11-20T03:41:44;68.85;;;33.30;;
56631;SDS011;42503;39.928;-75.152;2022-11-20T03:43:53;72.18;;;34.30;;
56631;SDS011;42503;39.928;-75.152;2022-11-20T03:45:56;66.30;;;33.03;;
56631;SDS011;42503;39.928;-75.152;2022-11-20T03:47:57;69.10;;;33.55;;
56631;SDS011;42503;39.928;-75.152;2022-11-20T03:49:58;74.30;;;32.38;;
56631;SDS011;42503;39.928;-75.152;2022-11-20T03:52:00;63.53;;;33.25;;
56631;SDS011;42503;39.928;-75.152;2022-11-20T03:54:07;64.57;;;31.77;;
56631;SDS011;42503;39.928;-75.152;2022-11-20T03:56:10;70.32;;;32.08;;
56631;SDS011;42503;39.928;-75.152;2022-11-20T03:58:12;60.22;;;30.70;;
56631;SDS011;42503;39.928;-75.152;2022-11-20T04:00:14;68.13;;;30.98;;
56631;SDS011;42503;39.928;-75.152;2022-11-20T04:02:15;58.72;;;29.60;;
56631;SDS011;42503;39.928;-75.152;2022-11-20T04:04:17;63.85;;;31.63;;
56631;SDS011;42503;39.928;-75.152;2022-11-20T04:06:19;56.03;;;28.95;;
56631;SDS011;42503;39.928;-75.152;2022-11-20T04:08:25;61.83;;;29.83;;
56631;SDS011;42503;39.928;-75.152;2022-11-20T04:10:26;57.78;;;28.40;;
56631;SDS011;42503;39.928;-75.152;2022-11-20T04:12:31;57.63;;;28.70;;
56631;SDS011;42503;39.928;-75.152;2022-11-20T04:14:34;55.97;;;26.98;;
56631;SDS011;42503;39.928;-75.152;2022-11-20T04:16:35;60.97;;;27.63;;
56631;SDS011;42503;39.928;-75.152;2022-11-20T04:18:37;56.17;;;27.98;;
56631;SDS011;42503;39.928;-75.152;2022-11-20T04:20:38;54.95;;;26.13;;
56631;SDS011;42503;39.928;-75.152;2022-11-20T04:22:39;53.88;;;26.50;;
56631;SDS011;42503;39.928;-75.152;2022-11-20T04:24:41;54.35;;;25.77;;
56631;SDS011;42503;39.928;-75.152;2022-11-20T04:26:42;48.40;;;25.10;;
56631;SDS011;42503;39.928;-75.152;2022-11-20T04:28:43;47.00;;;25.77;;
56631;SDS011;42503;39.928;-75.152;2022-11-20T04:30:48;47.95;;;25.85;;
56631;SDS011;42503;39.928;-75.152;2022-11-20T04:32:52;48.55;;;26.65;;
56631;SDS011;42503;39.928;-75.152;2022-11-20T04:34:53;51.03;;;25.45;;
56631;SDS011;42503;39.928;-75.152;2022-11-20T04:36:54;50.45;;;24.40;;
56631;SDS011;42503;39.928;-75.152;2022-11-20T04:38:57;47.33;;;23.38;;
56631;SDS011;42503;39.928;-75.152;2022-11-20T04:41:00;47.28;;;23.90;;
56631;SDS011;42503;39.928;-75.152;2022-11-20T04:43:06;43.35;;;23.27;;
56631;SDS011;42503;39.928;-75.152;2022-11-20T04:45:07;42.55;;;23.50;;
56631;SDS011;42503;39.928;-75.152;2022-11-20T04:47:11;40.65;;;21.45;;
56631;SDS011;42503;39.928;-75.152;2022-11-20T04:49:13;41.00;;;21.27;;
56631;SDS011;42503;39.928;-75.152;2022-11-20T04:51:14;37.70;;;21.63;;
56631;SDS011;42503;39.928;-75.152;2022-11-20T04:53:16;41.95;;;21.80;;
56631;SDS011;42503;39.928;-75.152;2022-11-20T04:55:21;43.35;;;21.50;;
56631;SDS011;42503;39.928;-75.152;2022-11-20T04:57:22;39.35;;;19.50;;
56631;SDS011;42503;39.928;-75.152;2022-11-20T04:59:23;40.08;;;20.65;;
56631;SDS011;42503;39.928;-75.152;2022-11-20T05:01:25;39.10;;;20.67;;
56631;SDS011;42503;39.928;-75.152;2022-11-20T05:03:26;42.40;;;19.73;;
56631;SDS011;42503;39.928;-75.152;2022-11-20T05:05:27;37.65;;;20.02;;
56631;SDS011;42503;39.928;-75.152;2022-11-20T05:07:29;38.25;;;18.80;;
56631;SDS011;42503;39.928;-75.152;2022-11-20T05:09:30;34.20;;;19.88;;
56631;SDS011;42503;39.928;-75.152;2022-11-20T05:11:32;56.08;;;20.20;;
56631;SDS011;42503;39.928;-75.152;2022-11-20T05:13:33;44.17;;;18.85;;
56631;SDS011;42503;39.928;-75.152;2022-11-20T05:15:35;43.35;;;18.23;;
56631;SDS011;42503;39.928;-75.152;2022-11-20T05:17:36;39.65;;;17.45;;
56631;SDS011;42503;39.928;-75.152;2022-11-20T05:19:40;33.20;;;18.35;;
56631;SDS011;42503;39.928;-75.152;2022-11-20T05:21:41;43.63;;;18.27;;
56631;SDS011;42503;39.928;-75.152;2022-11-20T05:23:43;39.08;;;18.15;;
56631;SDS011;42503;39.928;-75.152;2022-11-20T05:25:45;35.35;;;16.45;;
56631;SDS011;42503;39.928;-75.152;2022-11-20T05:27:46;32.55;;;16.65;;
56631;SDS011;42503;39.928;-75.152;2022-11-20T05:29:48;34.88;;;17.15;;
56631;SDS011;42503;39.928;-75.152;2022-11-20T05:31:49;33.30;;;16.45;;
56631;SDS011;42503;39.928;-75.152;2022-11-20T05:33:50;35.80;;;17.33;;
56631;SDS011;42503;39.928;-75.152;2022-11-20T05:35:52;36.85;;;15.45;;
56631;SDS011;42503;39.928;-75.152;2022-11-20T05:37:53;36.47;;;16.20;;
56631;SDS011;42503;39.928;-75.152;2022-11-20T05:39:54;30.60;;;15.38;;
56631;SDS011;42503;39.928;-75.152;2022-11-20T05:41:56;33.28;;;15.40;;
56631;SDS011;42503;39.928;-75.152;2022-11-20T05:44:15;31.23;;;14.95;;
56631;SDS011;42503;39.928;-75.152;2022-11-20T05:46:17;42.38;;;15.43;;
56631;SDS011;42503;39.928;-75.152;2022-11-20T05:48:21;30.17;;;13.70;;
56631;SDS011;42503;39.928;-75.152;2022-11-20T05:50:22;27.75;;;14.82;;
56631;SDS011;42503;39.928;-75.152;2022-11-20T05:52:23;26.38;;;13.48;;
56631;SDS011;42503;39.928;-75.152;2022-11-20T05:54:24;26.33;;;14.10;;
56631;SDS011;42503;39.928;-75.152;2022-11-20T05:56:26;28.08;;;14.02;;
56631;SDS011;42503;39.928;-75.152;2022-11-20T05:58:30;25.95;;;12.95;;
56631;SDS011;42503;39.928;-75.152;2022-11-20T06:00:34;27.48;;;13.10;;
56631;SDS011;42503;39.928;-75.152;2022-11-20T06:02:38;25.92;;;14.23;;
56631;SDS011;42503;39.928;-75.152;2022-11-20T06:04:40;28.02;;;13.18;;
56631;SDS011;42503;39.928;-75.152;2022-11-20T06:06:41;29.00;;;12.40;;
56631;SDS011;42503;39.928;-75.152;2022-11-20T06:08:43;23.42;;;12.55;;
56631;SDS011;42503;39.928;-75.152;2022-11-20T06:10:45;26.38;;;12.55;;
56631;SDS011;42503;39.928;-75.152;2022-11-20T06:12:46;26.27;;;12.57;;
56631;SDS011;42503;39.928;-75.152;2022-11-20T06:14:47;29.17;;;13.13;;
56631;SDS011;42503;39.928;-75.152;2022-11-20T06:16:49;20.67;;;11.98;;
56631;SDS011;42503;39.928;-75.152;2022-11-20T06:18:50;24.60;;;12.00;;
56631;SDS011;42503;39.928;-75.152;2022-11-20T06:21:01;20.83;;;11.48;;
56631;SDS011;42503;39.928;-75.152;2022-11-20T06:23:04;23.13;;;11.75;;
56631;SDS011;42503;39.928;-75.152;2022-11-20T06:25:06;28.10;;;12.27;;
56631;SDS011;42503;39.928;-75.152;2022-11-20T06:27:16;22.77;;;11.57;;
56631;SDS011;42503;39.928;-75.152;2022-11-20T06:29:20;23.53;;;11.53;;
56631;SDS011;42503;39.928;-75.152;2022-11-20T06:31:30;20.38;;;10.88;;
56631;SDS011;42503;39.928;-75.152;2022-11-20T06:35:39;20.77;;;10.93;;
56631;SDS011;42503;39.928;-75.152;2022-11-20T06:37:40;19.30;;;10.63;;
56631;SDS011;42503;39.928;-75.152;2022-11-20T06:39:41;18.60;;;11.18;;
56631;SDS011;42503;39.928;-75.152;2022-11-20T06:41:45;17.83;;;10.45;;
56631;SDS011;42503;39.928;-75.152;2022-11-20T06:43:46;17.50;;;9.55;;
56631;SDS011;42503;39.928;-75.152;2022-11-20T06:45:54;20.00;;;10.43;;
56631;SDS011;42503;39.928;-75.152;2022-11-20T06:47:59;17.70;;;10.45;;
56631;SDS011;42503;39.928;-75.152;2022-11-20T06:50:00;17.85;;;9.35;;
56631;SDS011;42503;39.928;-75.152;2022-11-20T06:52:02;16.48;;;9.43;;
56631;SDS011;42503;39.928;-75.152;2022-11-20T06:54:03;17.90;;;9.75;;
56631;SDS011;42503;39.928;-75.152;2022-11-20T06:56:05;17.27;;;9.45;;
56631;SDS011;42503;39.928;-75.152;2022-11-20T06:58:07;15.73;;;9.10;;
56631;SDS011;42503;39.928;-75.152;2022-11-20T07:00:09;16.50;;;9.43;;
56631;SDS011;42503;39.928;-75.152;2022-11-20T07:02:13;16.95;;;9.13;;
56631;SDS011;42503;39.928;-75.152;2022-11-20T07:04:20;16.40;;;8.77;;
56631;SDS011;42503;39.928;-75.152;2022-11-20T07:06:24;14.37;;;8.13;;
56631;SDS011;42503;39.928;-75.152;2022-11-20T07:08:25;16.15;;;8.10;;
56631;SDS011;42503;39.928;-75.152;2022-11-20T07:10:27;16.35;;;9.43;;
56631;SDS011;42503;39.928;-75.152;2022-11-20T07:12:28;13.20;;;7.78;;
56631;SDS011;42503;39.928;-75.152;2022-11-20T07:14:30;16.00;;;8.82;;
56631;SDS011;42503;39.928;-75.152;2022-11-20T07:16:31;13.52;;;8.32;;
56631;SDS011;42503;39.928;-75.152;2022-11-20T07:18:32;15.43;;;7.95;;
56631;SDS011;42503;39.928;-75.152;2022-11-20T07:20:36;15.87;;;7.93;;
56631;SDS011;42503;39.928;-75.152;2022-11-20T07:22:38;15.05;;;7.13;;
56631;SDS011;42503;39.928;-75.152;2022-11-20T07:24:39;13.13;;;7.93;;
56631;SDS011;42503;39.928;-75.152;2022-11-20T07:26:40;10.48;;;7.00;;
56631;SDS011;42503;39.928;-75.152;2022-11-20T07:28:43;12.30;;;6.63;;
56631;SDS011;42503;39.928;-75.152;2022-11-20T07:30:52;12.07;;;7.82;;
56631;SDS011;42503;39.928;-75.152;2022-11-20T07:32:54;11.07;;;7.35;;
56631;SDS011;42503;39.928;-75.152;2022-11-20T07:34:56;11.02;;;6.45;;
56631;SDS011;42503;39.928;-75.152;2022-11-20T07:37:01;11.75;;;6.85;;
56631;SDS011;42503;39.928;-75.152;2022-11-20T07:39:02;11.30;;;7.25;;
56631;SDS011;42503;39.928;-75.152;2022-11-20T07:41:07;12.80;;;6.85;;
56631;SDS011;42503;39.928;-75.152;2022-11-20T07:43:08;13.73;;;8.30;;
56631;SDS011;42503;39.928;-75.152;2022-11-20T07:45:09;11.30;;;6.63;;
56631;SDS011;42503;39.928;-75.152;2022-11-20T07:47:10;9.85;;;5.80;;
56631;SDS011;42503;39.928;-75.152;2022-11-20T07:49:12;10.85;;;6.60;;
56631;SDS011;42503;39.928;-75.152;2022-11-20T07:51:13;10.40;;;6.40;;
56631;SDS011;42503;39.928;-75.152;2022-11-20T07:53:17;10.20;;;6.10;;
56631;SDS011;42503;39.928;-75.152;2022-11-20T07:55:21;13.05;;;6.65;;
56631;SDS011;42503;39.928;-75.152;2022-11-20T07:57:22;10.88;;;6.68;;
56631;SDS011;42503;39.928;-75.152;2022-11-20T07:59:23;8.90;;;5.88;;
56631;SDS011;42503;39.928;-75.152;2022-11-20T08:01:25;11.70;;;6.82;;
56631;SDS011;42503;39.928;-75.152;2022-11-20T08:03:26;9.68;;;5.65;;
56631;SDS011;42503;39.928;-75.152;2022-11-20T08:05:27;10.00;;;6.03;;
56631;SDS011;42503;39.928;-75.152;2022-11-20T08:07:29;10.43;;;5.80;;
56631;SDS011;42503;39.928;-75.152;2022-11-20T08:09:30;8.02;;;5.78;;
56631;SDS011;42503;39.928;-75.152;2022-11-20T08:11:31;8.48;;;5.85;;
56631;SDS011;42503;39.928;-75.152;2022-11-20T08:13:54;8.57;;;5.93;;
56631;SDS011;42503;39.928;-75.152;2022-11-20T08:16:15;8.02;;;5.63;;
56631;SDS011;42503;39.928;-75.152;2022-11-20T08:18:16;7.43;;;5.25;;
56631;SDS011;42503;39.928;-75.152;2022-11-20T08:20:18;7.78;;;5.28;;
56631;SDS011;42503;39.928;-75.152;2022-11-20T08:22:19;9.18;;;5.65;;
56631;SDS011;42503;39.928;-75.152;2022-11-20T08:24:21;8.70;;;5.22;;
56631;SDS011;42503;39.928;-75.152;2022-11-20T08:26:22;9.70;;;4.93;;
56631;SDS011;42503;39.928;-75.152;2022-11-20T08:28:24;8.20;;;5.05;;
56631;SDS011;42503;39.928;-75.152;2022-11-20T08:30:26;9.63;;;5.07;;
56631;SDS011;42503;39.928;-75.152;2022-11-20T08:32:27;7.07;;;5.10;;
56631;SDS011;42503;39.928;-75.152;2022-11-20T08:34:28;7.00;;;5.13;;
56631;SDS011;42503;39.928;-75.152;2022-11-20T08:36:32;7.45;;;4.80;;
56631;SDS011;42503;39.928;-75.152;2022-11-20T08:38:35;7.15;;;4.45;;
56631;SDS011;42503;39.928;-75.152;2022-11-20T08:40:36;7.30;;;5.00;;
56631;SDS011;42503;39.928;-75.152;2022-11-20T08:42:45;8.45;;;4.90;;
56631;SDS011;42503;39.928;-75.152;2022-11-20T08:44:48;6.30;;;4.57;;
56631;SDS011;42503;39.928;-75.152;2022-11-20T08:46:49;7.82;;;4.40;;
56631;SDS011;42503;39.928;-75.152;2022-11-20T08:48:50;7.00;;;4.97;;
56631;SDS011;42503;39.928;-75.152;2022-11-20T08:51:01;5.85;;;4.68;;
56631;SDS011;42503;39.928;-75.152;2022-11-20T08:53:07;7.60;;;4.70;;
56631;SDS011;42503;39.928;-75.152;2022-11-20T08:55:09;7.25;;;4.60;;
56631;SDS011;42503;39.928;-75.152;2022-11-20T08:57:11;7.32;;;4.68;;
56631;SDS011;42503;39.928;-75.152;2022-11-20T08:59:12;6.18;;;4.65;;
56631;SDS011;42503;39.928;-75.152;2022-11-20T09:01:13;6.63;;;4.43;;
56631;SDS011;42503;39.928;-75.152;2022-11-20T09:03:14;5.60;;;4.40;;
56631;SDS011;42503;39.928;-75.152;2022-11-20T09:05:16;6.25;;;4.20;;
56631;SDS011;42503;39.928;-75.152;2022-11-20T09:07:17;5.63;;;4.22;;
56631;SDS011;42503;39.928;-75.152;2022-11-20T09:09:18;6.88;;;4.65;;
56631;SDS011;42503;39.928;-75.152;2022-11-20T09:11:20;7.50;;;4.57;;
56631;SDS011;42503;39.928;-75.152;2022-11-20T09:13:22;6.88;;;4.35;;
56631;SDS011;42503;39.928;-75.152;2022-11-20T09:15:25;6.63;;;4.20;;
56631;SDS011;42503;39.928;-75.152;2022-11-20T09:17:26;7.70;;;4.45;;
56631;SDS011;42503;39.928;-75.152;2022-11-20T09:19:28;5.68;;;3.95;;
56631;SDS011;42503;39.928;-75.152;2022-11-20T09:21:29;5.68;;;3.83;;
56631;SDS011;42503;39.928;-75.152;2022-11-20T09:23:33;7.32;;;4.53;;
56631;SDS011;42503;39.928;-75.152;2022-11-20T09:25:36;8.02;;;4.22;;
56631;SDS011;42503;39.928;-75.152;2022-11-20T09:27:37;5.75;;;3.83;;
56631;SDS011;42503;39.928;-75.152;2022-11-20T09:29:46;5.60;;;3.67;;
56631;SDS011;42503;39.928;-75.152;2022-11-20T09:31:50;6.47;;;3.85;;
56631;SDS011;42503;39.928;-75.152;2022-11-20T09:33:51;5.32;;;3.60;;
56631;SDS011;42503;39.928;-75.152;2022-11-20T09:35:53;5.32;;;3.40;;
56631;SDS011;42503;39.928;-75.152;2022-11-20T09:37:54;5.00;;;3.97;;
56631;SDS011;42503;39.928;-75.152;2022-11-20T09:39:55;6.53;;;3.47;;
56631;SDS011;42503;39.928;-75.152;2022-11-20T09:52:28;4.47;;;3.65;;
56631;SDS011;42503;39.928;-75.152;2022-11-20T09:54:45;5.38;;;3.38;;
56631;SDS011;42503;39.928;-75.152;2022-11-20T09:56:48;4.82;;;3.42;;
56631;SDS011;42503;39.928;-75.152;2022-11-20T09:58:57;5.63;;;3.50;;
56631;SDS011;42503;39.928;-75.152;2022-11-20T10:01:09;4.93;;;3.47;;
56631;SDS011;42503;39.928;-75.152;2022-11-20T10:03:26;4.78;;;3.08;;
56631;SDS011;42503;39.928;-75.152;2022-11-20T10:05:43;4.32;;;3.08;;
56631;SDS011;42503;39.928;-75.152;2022-11-20T10:07:52;4.07;;;3.00;;
56631;SDS011;42503;39.928;-75.152;2022-11-20T10:10:02;6.43;;;3.80;;
56631;SDS011;42503;39.928;-75.152;2022-11-20T10:17:03;4.63;;;3.05;;
56631;SDS011;42503;39.928;-75.152;2022-11-20T10:19:37;3.38;;;2.60;;
56631;SDS011;42503;39.928;-75.152;2022-11-20T10:24:42;5.55;;;3.10;;
56631;SDS011;42503;39.928;-75.152;2022-11-20T10:29:24;3.33;;;2.47;;
56631;SDS011;42503;39.928;-75.152;2022-11-20T10:31:39;4.68;;;2.80;;
56631;SDS011;42503;39.928;-75.152;2022-11-20T10:33:43;4.18;;;2.88;;
56631;SDS011;42503;39.928;-75.152;2022-11-20T10:37:53;3.55;;;2.53;;
56631;SDS011;42503;39.928;-75.152;2022-11-20T10:40:23;3.05;;;2.28;;
56631;SDS011;42503;39.928;-75.152;2022-11-20T10:44:52;3.05;;;2.38;;
56631;SDS011;42503;39.928;-75.152;2022-11-20T10:47:08;3.45;;;2.40;;
56631;SDS011;42503;39.928;-75.152;2022-11-20T10:49:17;3.00;;;2.47;;
56631;SDS011;42503;39.928;-75.152;2022-11-20T10:55:57;3.40;;;2.35;;
56631;SDS011;42503;39.928;-75.152;2022-11-20T10:58:10;3.20;;;2.03;;
56631;SDS011;42503;39.928;-75.152;2022-11-20T11:00:26;4.10;;;2.50;;
56631;SDS011;42503;39.928;-75.152;2022-11-20T11:02:41;2.88;;;2.30;;
56631;SDS011;42503;39.928;-75.152;2022-11-20T11:04:50;2.72;;;2.28;;
56631;SDS011;42503;39.928;-75.152;2022-11-20T11:06:52;2.50;;;2.10;;
56631;SDS011;42503;39.928;-75.152;2022-11-20T11:09:00;4.38;;;2.63;;
56631;SDS011;42503;39.928;-75.152;2022-11-20T11:13:22;4.32;;;2.30;;
56631;SDS011;42503;39.928;-75.152;2022-11-20T11:15:29;3.85;;;2.47;;
56631;SDS011;42503;39.928;-75.152;2022-11-20T11:17:45;2.88;;;1.95;;
56631;SDS011;42503;39.928;-75.152;2022-11-20T11:22:20;2.38;;;1.92;;
56631;SDS011;42503;39.928;-75.152;2022-11-20T11:24:27;2.78;;;2.00;;
56631;SDS011;42503;39.928;-75.152;2022-11-20T11:26:35;2.80;;;1.92;;
56631;SDS011;42503;39.928;-75.152;2022-11-20T11:28:52;2.88;;;2.20;;
56631;SDS011;42503;39.928;-75.152;2022-11-20T11:31:00;3.78;;;1.80;;
56631;SDS011;42503;39.928;-75.152;2022-11-20T11:33:02;4.28;;;1.92;;
56631;SDS011;42503;39.928;-75.152;2022-11-20T11:35:06;2.47;;;1.70;;
56631;SDS011;42503;39.928;-75.152;2022-11-20T11:37:23;2.30;;;1.50;;
56631;SDS011;42503;39.928;-75.152;2022-11-20T11:39:29;2.83;;;2.10;;
56631;SDS011;42503;39.928;-75.152;2022-11-20T11:41:32;2.00;;;1.73;;
56631;SDS011;42503;39.928;-75.152;2022-11-20T11:43:36;2.42;;;1.90;;
56631;SDS011;42503;39.928;-75.152;2022-11-20T11:45:57;2.70;;;1.92;;
56631;SDS011;42503;39.928;-75.152;2022-11-20T11:48:01;2.22;;;1.92;;
56631;SDS011;42503;39.928;-75.152;2022-11-20T11:50:21;2.78;;;1.73;;
56631;SDS011;42503;39.928;-75.152;2022-11-20T11:52:28;2.42;;;1.63;;
56631;SDS011;42503;39.928;-75.152;2022-11-20T11:57:07;2.47;;;1.77;;
56631;SDS011;42503;39.928;-75.152;2022-11-20T12:00:03;2.60;;;1.60;;
56631;SDS011;42503;39.928;-75.152;2022-11-20T12:02:00;2.15;;;1.70;;
56631;SDS011;42503;39.928;-75.152;2022-11-20T12:06:35;2.00;;;1.60;;
56631;SDS011;42503;39.928;-75.152;2022-11-20T12:11:06;1.52;;;1.40;;
56631;SDS011;42503;39.928;-75.152;2022-11-20T12:15:45;2.33;;;1.88;;
56631;SDS011;42503;39.928;-75.152;2022-11-20T12:17:48;2.17;;;1.70;;
56631;SDS011;42503;39.928;-75.152;2022-11-20T12:19:49;2.53;;;1.83;;
56631;SDS011;42503;39.928;-75.152;2022-11-20T12:24:10;2.10;;;1.58;;
56631;SDS011;42503;39.928;-75.152;2022-11-20T12:26:33;2.70;;;1.80;;
56631;SDS011;42503;39.928;-75.152;2022-11-20T12:28:40;2.35;;;1.35;;
56631;SDS011;42503;39.928;-75.152;2022-11-20T12:33:54;1.80;;;1.30;;
56631;SDS011;42503;39.928;-75.152;2022-11-20T12:36:11;1.58;;;1.20;;
56631;SDS011;42503;39.928;-75.152;2022-11-20T12:38:44;1.67;;;1.40;;
56631;SDS011;42503;39.928;-75.152;2022-11-20T12:44:02;1.27;;;1.13;;
56631;SDS011;42503;39.928;-75.152;2022-11-20T12:47:03;1.63;;;1.08;;
56631;SDS011;42503;39.928;-75.152;2022-11-20T12:49:45;1.35;;;1.08;;
56631;SDS011;42503;39.928;-75.152;2022-11-20T12:54:44;2.28;;;1.23;;
56631;SDS011;42503;39.928;-75.152;2022-11-20T12:56:57;2.53;;;1.30;;
56631;SDS011;42503;39.928;-75.152;2022-11-20T13:01:25;1.73;;;1.40;;
56631;SDS011;42503;39.928;-75.152;2022-11-20T13:03:48;1.40;;;1.17;;
56631;SDS011;42503;39.928;-75.152;2022-11-20T13:06:00;1.45;;;1.20;;
56631;SDS011;42503;39.928;-75.152;2022-11-20T13:08:25;2.28;;;1.25;;